sensor_id;sensor_type;location;lat;lon;timestamp;pressure;altitude;pressure_sealevel;temperature;humidity
34081;BME280;20358;50.272;19.026;2023-06-04T00:01:11;98654.38;;;9.10;44.95
34081;BME280;20358;50.272;19.026;2023-06-04T00:04:20;98663.34;;;9.08;45.01
34081;BME280;20358;50.272;19.026;2023-06-04T00:07:27;98667.19;;;9.02;44.72
34081;BME280;20358;50.272;19.026;2023-06-04T00:10:38;98656.94;;;8.98;45.37
34081;BME280;20358;50.272;19.026;2023-06-04T00:13:45;98642.38;;;8.92;45.09
34081;BME280;20358;50.272;19.026;2023-06-04T00:16:53;98646.13;;;8.88;46.21
34081;BME280;20358;50.272;19.026;2023-06-04T00:20:00;98651.59;;;8.85;45.63
34081;BME280;20358;50.272;19.026;2023-06-04T00:23:08;98626.88;;;8.74;45.54
34081;BME280;20358;50.272;19.026;2023-06-04T00:26:17;98587.25;;;8.48;45.62
34081;BME280;20358;50.272;19.026;2023-06-04T00:29:27;98626.97;;;8.72;45.98
34081;BME280;20358;50.272;19.026;2023-06-04T00:32:34;98589.66;;;8.51;46.13
34081;BME280;20358;50.272;19.026;2023-06-04T00:35:42;98644.84;;;8.81;46.54
34081;BME280;20358;50.272;19.026;2023-06-04T00:38:48;98643.13;;;8.80;46.89
34081;BME280;20358;50.272;19.026;2023-06-04T00:41:59;98649.25;;;8.81;45.95
34081;BME280;20358;50.272;19.026;2023-06-04T00:45:07;98609.97;;;8.64;45.68
34081;BME280;20358;50.272;19.026;2023-06-04T00:48:18;98592.03;;;8.56;45.91
34081;BME280;20358;50.272;19.026;2023-06-04T00:51:25;98639.56;;;8.81;46.14
34081;BME280;20358;50.272;19.026;2023-06-04T00:54:34;98597.84;;;8.47;46.31
34081;BME280;20358;50.272;19.026;2023-06-04T00:57:44;98617.94;;;8.62;47.07
34081;BME280;20358;50.272;19.026;2023-06-04T01:00:56;98630.19;;;8.63;47.29
34081;BME280;20358;50.272;19.026;2023-06-04T01:04:14;98613.66;;;8.47;47.60
34081;BME280;20358;50.272;19.026;2023-06-04T01:07:27;98629.38;;;8.48;47.44
34081;BME280;20358;50.272;19.026;2023-06-04T01:10:50;98579.56;;;8.17;47.79
34081;BME280;20358;50.272;19.026;2023-06-04T01:14:00;98617.59;;;8.40;46.87
34081;BME280;20358;50.272;19.026;2023-06-04T01:17:15;98615.53;;;8.45;47.05
34081;BME280;20358;50.272;19.026;2023-06-04T01:20:36;98626.06;;;8.45;47.17
34081;BME280;20358;50.272;19.026;2023-06-04T01:23:50;98627.94;;;8.43;47.58
34081;BME280;20358;50.272;19.026;2023-06-04T01:27:04;98628.78;;;8.43;48.25
34081;BME280;20358;50.272;19.026;2023-06-04T01:30:17;98624.34;;;8.44;48.19
34081;BME280;20358;50.272;19.026;2023-06-04T01:33:27;98629.81;;;8.41;47.79
34081;BME280;20358;50.272;19.026;2023-06-04T01:36:36;98630.38;;;8.32;47.43
34081;BME280;20358;50.272;19.026;2023-06-04T01:39:46;98615.13;;;8.23;48.48
34081;BME280;20358;50.272;19.026;2023-06-04T01:42:53;98628.88;;;8.14;48.90
34081;BME280;20358;50.272;19.026;2023-06-04T01:46:04;98614.03;;;7.97;48.85
34081;BME280;20358;50.272;19.026;2023-06-04T01:49:14;98631.63;;;7.96;49.54
34081;BME280;20358;50.272;19.026;2023-06-04T01:52:21;98625.97;;;7.88;48.80
34081;BME280;20358;50.272;19.026;2023-06-04T01:55:29;98630.56;;;7.85;49.83
34081;BME280;20358;50.272;19.026;2023-06-04T01:58:37;98622.97;;;7.80;49.11
34081;BME280;20358;50.272;19.026;2023-06-04T02:01:51;98625.66;;;7.79;49.55
34081;BME280;20358;50.272;19.026;2023-06-04T02:04:58;98590.13;;;7.58;49.48
34081;BME280;20358;50.272;19.026;2023-06-04T02:08:06;98622.22;;;7.78;49.80
34081;BME280;20358;50.272;19.026;2023-06-04T02:11:13;98621.59;;;7.73;49.54
34081;BME280;20358;50.272;19.026;2023-06-04T02:14:20;98627.25;;;7.67;50.50
34081;BME280;20358;50.272;19.026;2023-06-04T02:17:30;98591.88;;;7.43;50.17
34081;BME280;20358;50.272;19.026;2023-06-04T02:20:48;98628.53;;;7.60;50.57
34081;BME280;20358;50.272;19.026;2023-06-04T02:23:59;98627.94;;;7.55;50.12
34081;BME280;20358;50.272;19.026;2023-06-04T02:27:07;98579.88;;;7.23;50.53
34081;BME280;20358;50.272;19.026;2023-06-04T02:30:16;98625.28;;;7.41;50.45
34081;BME280;20358;50.272;19.026;2023-06-04T02:33:26;98631.28;;;7.43;50.15
34081;BME280;20358;50.272;19.026;2023-06-04T02:36:34;98632.03;;;7.45;50.85
34081;BME280;20358;50.272;19.026;2023-06-04T02:39:43;98616.81;;;7.36;51.33
34081;BME280;20358;50.272;19.026;2023-06-04T02:42:50;98625.84;;;7.46;51.19
34081;BME280;20358;50.272;19.026;2023-06-04T02:45:59;98624.94;;;7.47;51.31
34081;BME280;20358;50.272;19.026;2023-06-04T02:49:10;98624.16;;;7.45;50.64
34081;BME280;20358;50.272;19.026;2023-06-04T02:52:20;98626.13;;;7.42;50.89
34081;BME280;20358;50.272;19.026;2023-06-04T02:55:28;98563.91;;;6.97;51.18
34081;BME280;20358;50.272;19.026;2023-06-04T02:58:36;98622.06;;;7.36;51.69
34081;BME280;20358;50.272;19.026;2023-06-04T03:01:44;98626.47;;;7.35;51.96
34081;BME280;20358;50.272;19.026;2023-06-04T03:04:54;98602.69;;;7.23;51.88
34081;BME280;20358;50.272;19.026;2023-06-04T03:08:03;98622.13;;;7.34;51.16
34081;BME280;20358;50.272;19.026;2023-06-04T03:11:11;98622.22;;;7.33;52.12
34081;BME280;20358;50.272;19.026;2023-06-04T03:14:18;98623.25;;;7.30;51.97
34081;BME280;20358;50.272;19.026;2023-06-04T03:17:28;98613.09;;;7.24;51.44
34081;BME280;20358;50.272;19.026;2023-06-04T03:20:38;98620.53;;;7.32;52.16
34081;BME280;20358;50.272;19.026;2023-06-04T03:23:46;98574.28;;;7.14;51.76
34081;BME280;20358;50.272;19.026;2023-06-04T03:26:54;98611.03;;;7.29;51.78
34081;BME280;20358;50.272;19.026;2023-06-04T03:30:02;98622.38;;;7.46;51.49
34081;BME280;20358;50.272;19.026;2023-06-04T03:33:21;98623.06;;;7.49;51.98
34081;BME280;20358;50.272;19.026;2023-06-04T03:36:32;98633.19;;;7.55;51.08
34081;BME280;20358;50.272;19.026;2023-06-04T03:39:42;98634.53;;;7.62;51.83
34081;BME280;20358;50.272;19.026;2023-06-04T03:42:53;98635.88;;;7.69;51.50
34081;BME280;20358;50.272;19.026;2023-06-04T03:46:04;98634.56;;;7.76;50.70
34081;BME280;20358;50.272;19.026;2023-06-04T03:49:13;98636.69;;;7.85;50.72
34081;BME280;20358;50.272;19.026;2023-06-04T03:52:28;98621.94;;;7.83;50.56
34081;BME280;20358;50.272;19.026;2023-06-04T03:55:37;98638.31;;;8.02;51.14
34081;BME280;20358;50.272;19.026;2023-06-04T03:58:45;98634.88;;;8.16;49.91
34081;BME280;20358;50.272;19.026;2023-06-04T04:01:53;98633.31;;;8.27;49.70
34081;BME280;20358;50.272;19.026;2023-06-04T04:05:06;98621.34;;;8.36;50.53
34081;BME280;20358;50.272;19.026;2023-06-04T04:08:21;98647.88;;;8.61;49.77
34081;BME280;20358;50.272;19.026;2023-06-04T04:11:31;98643.63;;;8.73;48.94
34081;BME280;20358;50.272;19.026;2023-06-04T04:14:39;98628.66;;;8.73;49.16
34081;BME280;20358;50.272;19.026;2023-06-04T04:17:49;98503.25;;;8.03;49.53
34081;BME280;20358;50.272;19.026;2023-06-04T04:20:57;98619.25;;;8.83;49.24
34081;BME280;20358;50.272;19.026;2023-06-04T04:24:09;98643.31;;;9.05;49.21
34081;BME280;20358;50.272;19.026;2023-06-04T04:27:17;98620.53;;;9.04;47.99
34081;BME280;20358;50.272;19.026;2023-06-04T04:30:24;98635.91;;;9.25;47.86
34081;BME280;20358;50.272;19.026;2023-06-04T04:33:36;98644.19;;;9.33;47.44
34081;BME280;20358;50.272;19.026;2023-06-04T04:36:48;98630.41;;;9.42;47.89
34081;BME280;20358;50.272;19.026;2023-06-04T04:40:06;98632.63;;;9.48;46.86
34081;BME280;20358;50.272;19.026;2023-06-04T04:43:29;98645.03;;;9.60;47.01
34081;BME280;20358;50.272;19.026;2023-06-04T04:46:50;98644.00;;;9.75;46.80
34081;BME280;20358;50.272;19.026;2023-06-04T04:49:57;98643.19;;;9.87;47.02
34081;BME280;20358;50.272;19.026;2023-06-04T04:53:04;98651.84;;;10.02;46.27
34081;BME280;20358;50.272;19.026;2023-06-04T04:56:20;98631.78;;;9.99;45.92
34081;BME280;20358;50.272;19.026;2023-06-04T04:59:29;98645.06;;;10.24;45.97
34081;BME280;20358;50.272;19.026;2023-06-04T05:02:36;98639.44;;;10.41;45.40
34081;BME280;20358;50.272;19.026;2023-06-04T05:05:45;98596.38;;;10.28;45.32
34081;BME280;20358;50.272;19.026;2023-06-04T05:08:53;98648.16;;;10.80;45.30
34081;BME280;20358;50.272;19.026;2023-06-04T05:12:04;98656.19;;;10.91;44.84
34081;BME280;20358;50.272;19.026;2023-06-04T05:15:13;98653.06;;;11.10;44.51
34081;BME280;20358;50.272;19.026;2023-06-04T05:18:24;98649.84;;;11.30;44.51
34081;BME280;20358;50.272;19.026;2023-06-04T05:21:37;98654.88;;;11.45;43.94
34081;BME280;20358;50.272;19.026;2023-06-04T05:24:46;98659.50;;;11.54;43.44
34081;BME280;20358;50.272;19.026;2023-06-04T05:27:58;98673.44;;;11.56;42.95
34081;BME280;20358;50.272;19.026;2023-06-04T05:31:10;98657.38;;;11.59;43.10
34081;BME280;20358;50.272;19.026;2023-06-04T05:34:19;98651.38;;;11.68;42.77
34081;BME280;20358;50.272;19.026;2023-06-04T05:37:28;98660.81;;;11.84;42.65
34081;BME280;20358;50.272;19.026;2023-06-04T05:40:37;98651.84;;;11.97;42.63
34081;BME280;20358;50.272;19.026;2023-06-04T05:43:50;98628.59;;;11.90;42.66
34081;BME280;20358;50.272;19.026;2023-06-04T05:46:58;98672.06;;;12.22;42.51
34081;BME280;20358;50.272;19.026;2023-06-04T05:50:09;98665.19;;;12.31;41.87
34081;BME280;20358;50.272;19.026;2023-06-04T05:53:17;98666.78;;;12.44;42.01
34081;BME280;20358;50.272;19.026;2023-06-04T05:56:27;98658.84;;;12.55;41.68
34081;BME280;20358;50.272;19.026;2023-06-04T05:59:38;98668.25;;;12.70;41.40
34081;BME280;20358;50.272;19.026;2023-06-04T06:02:50;98668.97;;;12.83;41.54
34081;BME280;20358;50.272;19.026;2023-06-04T06:06:10;98679.22;;;12.99;41.01
34081;BME280;20358;50.272;19.026;2023-06-04T06:09:19;98650.63;;;13.03;40.61
34081;BME280;20358;50.272;19.026;2023-06-04T06:12:26;98672.81;;;13.24;40.82
34081;BME280;20358;50.272;19.026;2023-06-04T06:15:38;98667.34;;;13.36;40.55
34081;BME280;20358;50.272;19.026;2023-06-04T06:18:46;98677.25;;;13.45;40.43
34081;BME280;20358;50.272;19.026;2023-06-04T06:21:54;98686.13;;;13.56;40.00
34081;BME280;20358;50.272;19.026;2023-06-04T06:25:04;98681.03;;;13.64;39.35
34081;BME280;20358;50.272;19.026;2023-06-04T06:28:18;98686.97;;;13.67;39.25
34081;BME280;20358;50.272;19.026;2023-06-04T06:31:29;98664.75;;;13.57;39.05
34081;BME280;20358;50.272;19.026;2023-06-04T06:34:37;98686.78;;;13.80;38.85
34081;BME280;20358;50.272;19.026;2023-06-04T06:37:44;98690.78;;;13.74;38.74
34081;BME280;20358;50.272;19.026;2023-06-04T06:40:53;98681.59;;;13.78;38.74
34081;BME280;20358;50.272;19.026;2023-06-04T06:44:00;98668.91;;;13.82;38.74
34081;BME280;20358;50.272;19.026;2023-06-04T06:47:11;98690.06;;;14.04;38.86
34081;BME280;20358;50.272;19.026;2023-06-04T06:50:19;98677.78;;;14.03;38.69
34081;BME280;20358;50.272;19.026;2023-06-04T06:53:35;98677.59;;;14.16;37.59
34081;BME280;20358;50.272;19.026;2023-06-04T06:56:43;98690.09;;;14.25;37.96
34081;BME280;20358;50.272;19.026;2023-06-04T06:59:52;98688.81;;;14.40;38.18
34081;BME280;20358;50.272;19.026;2023-06-04T07:03:04;98694.63;;;14.54;37.71
34081;BME280;20358;50.272;19.026;2023-06-04T07:06:15;98655.97;;;14.50;37.27
34081;BME280;20358;50.272;19.026;2023-06-04T07:09:23;98681.78;;;14.80;36.79
34081;BME280;20358;50.272;19.026;2023-06-04T07:12:31;98677.50;;;14.89;36.68
34081;BME280;20358;50.272;19.026;2023-06-04T07:15:39;98682.84;;;14.98;35.93
34081;BME280;20358;50.272;19.026;2023-06-04T07:18:52;98678.13;;;15.11;35.74
34081;BME280;20358;50.272;19.026;2023-06-04T07:22:01;98675.09;;;15.25;35.58
34081;BME280;20358;50.272;19.026;2023-06-04T07:25:10;98679.31;;;15.38;35.45
34081;BME280;20358;50.272;19.026;2023-06-04T07:28:20;98685.78;;;15.45;33.43
34081;BME280;20358;50.272;19.026;2023-06-04T07:31:30;98664.91;;;15.40;33.10
34081;BME280;20358;50.272;19.026;2023-06-04T07:34:40;98679.91;;;15.51;33.12
34081;BME280;20358;50.272;19.026;2023-06-04T07:37:49;98676.59;;;15.58;33.72
34081;BME280;20358;50.272;19.026;2023-06-04T07:40:56;98671.84;;;15.62;33.04
34081;BME280;20358;50.272;19.026;2023-06-04T07:44:04;98689.75;;;15.60;32.87
34081;BME280;20358;50.272;19.026;2023-06-04T07:47:11;98684.44;;;15.60;31.95
34081;BME280;20358;50.272;19.026;2023-06-04T07:50:22;98686.13;;;15.61;32.13
34081;BME280;20358;50.272;19.026;2023-06-04T07:53:30;98663.41;;;15.57;32.69
34081;BME280;20358;50.272;19.026;2023-06-04T07:56:40;98691.19;;;15.83;32.36
34081;BME280;20358;50.272;19.026;2023-06-04T07:59:48;98689.50;;;15.91;32.33
34081;BME280;20358;50.272;19.026;2023-06-04T08:02:56;98653.75;;;15.75;32.14
34081;BME280;20358;50.272;19.026;2023-06-04T08:06:07;98682.50;;;16.00;32.08
34081;BME280;20358;50.272;19.026;2023-06-04T08:09:14;98697.09;;;16.15;31.56
34081;BME280;20358;50.272;19.026;2023-06-04T08:12:22;98697.94;;;16.16;31.12
34081;BME280;20358;50.272;19.026;2023-06-04T08:15:30;98698.47;;;16.19;31.15
34081;BME280;20358;50.272;19.026;2023-06-04T08:18:38;98684.31;;;16.09;31.14
34081;BME280;20358;50.272;19.026;2023-06-04T08:21:49;98693.97;;;16.29;31.29
34081;BME280;20358;50.272;19.026;2023-06-04T08:24:57;98696.38;;;16.32;31.51
34081;BME280;20358;50.272;19.026;2023-06-04T08:28:06;98696.78;;;16.28;31.15
34081;BME280;20358;50.272;19.026;2023-06-04T08:31:15;98514.63;;;15.25;31.14
34081;BME280;20358;50.272;19.026;2023-06-04T08:34:24;98693.97;;;16.29;30.75
34081;BME280;20358;50.272;19.026;2023-06-04T08:37:34;98697.91;;;16.25;31.16
34081;BME280;20358;50.272;19.026;2023-06-04T08:40:44;98702.13;;;16.28;31.03
34081;BME280;20358;50.272;19.026;2023-06-04T08:43:55;98597.00;;;15.65;30.80
34081;BME280;20358;50.272;19.026;2023-06-04T08:47:05;98709.84;;;16.21;31.29
34081;BME280;20358;50.272;19.026;2023-06-04T08:50:17;98701.00;;;16.21;30.82
34081;BME280;20358;50.272;19.026;2023-06-04T08:53:30;98710.81;;;16.20;30.67
34081;BME280;20358;50.272;19.026;2023-06-04T08:56:37;98711.94;;;16.18;31.32
34081;BME280;20358;50.272;19.026;2023-06-04T08:59:46;98670.44;;;15.96;31.40
34081;BME280;20358;50.272;19.026;2023-06-04T09:02:55;98712.50;;;16.21;31.18
34081;BME280;20358;50.272;19.026;2023-06-04T09:06:04;98718.66;;;16.22;30.73
34081;BME280;20358;50.272;19.026;2023-06-04T09:09:17;98685.59;;;16.05;30.80
34081;BME280;20358;50.272;19.026;2023-06-04T09:12:27;98716.00;;;16.22;30.90
34081;BME280;20358;50.272;19.026;2023-06-04T09:15:36;98613.81;;;15.65;31.29
34081;BME280;20358;50.272;19.026;2023-06-04T09:18:44;98717.84;;;16.31;30.95
34081;BME280;20358;50.272;19.026;2023-06-04T09:21:54;98595.88;;;15.58;30.85
34081;BME280;20358;50.272;19.026;2023-06-04T09:25:07;98709.44;;;16.35;30.48
34081;BME280;20358;50.272;19.026;2023-06-04T09:28:32;98713.50;;;16.39;31.00
34081;BME280;20358;50.272;19.026;2023-06-04T09:31:40;98706.91;;;16.43;30.70
34081;BME280;20358;50.272;19.026;2023-06-04T09:34:47;98707.31;;;16.48;31.45
34081;BME280;20358;50.272;19.026;2023-06-04T09:37:57;98706.88;;;16.53;31.35
34081;BME280;20358;50.272;19.026;2023-06-04T09:41:15;98706.19;;;16.51;30.74
34081;BME280;20358;50.272;19.026;2023-06-04T09:44:29;98636.53;;;15.98;31.10
34081;BME280;20358;50.272;19.026;2023-06-04T09:47:40;98698.22;;;16.41;31.42
34081;BME280;20358;50.272;19.026;2023-06-04T09:50:50;98697.50;;;16.49;31.30
34081;BME280;20358;50.272;19.026;2023-06-04T09:53:59;98693.69;;;16.51;31.27
34081;BME280;20358;50.272;19.026;2023-06-04T09:57:17;98686.66;;;16.50;31.08
34081;BME280;20358;50.272;19.026;2023-06-04T10:00:26;98692.72;;;16.52;30.76
34081;BME280;20358;50.272;19.026;2023-06-04T10:03:37;98682.06;;;16.52;30.47
34081;BME280;20358;50.272;19.026;2023-06-04T10:06:49;98681.63;;;16.57;30.84
34081;BME280;20358;50.272;19.026;2023-06-04T10:09:59;98688.34;;;16.61;30.69
34081;BME280;20358;50.272;19.026;2023-06-04T10:13:17;98678.78;;;16.59;31.28
34081;BME280;20358;50.272;19.026;2023-06-04T10:16:29;98685.53;;;16.63;31.24
34081;BME280;20358;50.272;19.026;2023-06-04T10:19:43;98608.84;;;16.28;30.85
34081;BME280;20358;50.272;19.026;2023-06-04T10:22:51;98673.88;;;16.64;30.50
34081;BME280;20358;50.272;19.026;2023-06-04T10:26:04;98686.91;;;16.67;31.11
34081;BME280;20358;50.272;19.026;2023-06-04T10:29:18;98624.44;;;16.23;30.10
34081;BME280;20358;50.272;19.026;2023-06-04T10:32:29;98669.72;;;16.51;30.42
34081;BME280;20358;50.272;19.026;2023-06-04T10:35:37;98683.69;;;16.63;30.99
34081;BME280;20358;50.272;19.026;2023-06-04T10:38:45;98679.31;;;16.72;31.26
34081;BME280;20358;50.272;19.026;2023-06-04T10:41:59;98670.06;;;16.76;31.13
34081;BME280;20358;50.272;19.026;2023-06-04T10:45:13;98680.41;;;16.88;31.51
34081;BME280;20358;50.272;19.026;2023-06-04T10:48:21;98680.34;;;16.98;31.34
34081;BME280;20358;50.272;19.026;2023-06-04T10:51:30;98679.19;;;17.10;30.80
34081;BME280;20358;50.272;19.026;2023-06-04T10:54:43;98683.41;;;17.12;30.76
34081;BME280;20358;50.272;19.026;2023-06-04T10:57:53;98667.84;;;16.98;30.82
34081;BME280;20358;50.272;19.026;2023-06-04T11:01:06;98683.13;;;17.06;30.78
34081;BME280;20358;50.272;19.026;2023-06-04T11:04:20;98679.53;;;17.07;30.70
34081;BME280;20358;50.272;19.026;2023-06-04T11:07:29;98671.38;;;16.99;30.46
34081;BME280;20358;50.272;19.026;2023-06-04T11:10:38;98678.38;;;17.00;30.37
34081;BME280;20358;50.272;19.026;2023-06-04T11:13:48;98676.00;;;16.97;30.69
34081;BME280;20358;50.272;19.026;2023-06-04T11:16:57;98677.00;;;16.96;31.06
34081;BME280;20358;50.272;19.026;2023-06-04T11:20:17;98637.22;;;16.66;30.83
34081;BME280;20358;50.272;19.026;2023-06-04T11:23:25;98653.75;;;16.79;30.95
34081;BME280;20358;50.272;19.026;2023-06-04T11:26:35;98684.00;;;16.97;30.87
34081;BME280;20358;50.272;19.026;2023-06-04T11:29:49;98687.09;;;17.02;30.64
34081;BME280;20358;50.272;19.026;2023-06-04T11:33:05;98679.53;;;17.07;30.64
34081;BME280;20358;50.272;19.026;2023-06-04T11:36:23;98687.09;;;17.02;30.30
34081;BME280;20358;50.272;19.026;2023-06-04T11:39:35;98683.41;;;17.03;30.65
34081;BME280;20358;50.272;19.026;2023-06-04T11:42:44;98666.84;;;16.99;30.23
34081;BME280;20358;50.272;19.026;2023-06-04T11:45:54;98593.19;;;16.62;29.89
34081;BME280;20358;50.272;19.026;2023-06-04T11:49:04;98671.19;;;17.10;29.74
34081;BME280;20358;50.272;19.026;2023-06-04T11:52:13;98676.69;;;17.08;29.75
34081;BME280;20358;50.272;19.026;2023-06-04T11:55:20;98675.25;;;17.14;29.75
34081;BME280;20358;50.272;19.026;2023-06-04T11:58:30;98673.00;;;17.19;29.92
34081;BME280;20358;50.272;19.026;2023-06-04T12:01:44;98667.59;;;17.29;30.18
34081;BME280;20358;50.272;19.026;2023-06-04T12:04:56;98666.41;;;17.41;29.58
34081;BME280;20358;50.272;19.026;2023-06-04T12:08:07;98663.75;;;17.58;29.77
34081;BME280;20358;50.272;19.026;2023-06-04T12:11:27;98576.75;;;17.21;29.69
34081;BME280;20358;50.272;19.026;2023-06-04T12:14:42;98664.09;;;17.91;29.84
34081;BME280;20358;50.272;19.026;2023-06-04T12:17:52;98658.16;;;17.97;29.11
34081;BME280;20358;50.272;19.026;2023-06-04T12:21:03;98613.09;;;17.66;28.90
34081;BME280;20358;50.272;19.026;2023-06-04T12:24:14;98669.13;;;17.94;29.57
34081;BME280;20358;50.272;19.026;2023-06-04T12:27:23;98665.88;;;17.82;29.21
34081;BME280;20358;50.272;19.026;2023-06-04T12:30:35;98650.66;;;17.83;29.34
34081;BME280;20358;50.272;19.026;2023-06-04T12:33:43;98652.34;;;17.84;29.32
34081;BME280;20358;50.272;19.026;2023-06-04T12:36:55;98626.06;;;17.61;28.52
34081;BME280;20358;50.272;19.026;2023-06-04T12:40:02;98607.91;;;17.47;28.70
34081;BME280;20358;50.272;19.026;2023-06-04T12:43:13;98659.38;;;17.85;28.57
34081;BME280;20358;50.272;19.026;2023-06-04T12:46:20;98599.66;;;17.58;28.51
34081;BME280;20358;50.272;19.026;2023-06-04T12:49:28;98642.72;;;17.91;28.82
34081;BME280;20358;50.272;19.026;2023-06-04T12:52:37;98650.50;;;18.02;28.86
34081;BME280;20358;50.272;19.026;2023-06-04T12:55:46;98648.88;;;18.09;28.10
34081;BME280;20358;50.272;19.026;2023-06-04T12:58:53;98658.44;;;18.11;28.43
34081;BME280;20358;50.272;19.026;2023-06-04T13:02:01;98645.47;;;17.99;28.46
34081;BME280;20358;50.272;19.026;2023-06-04T13:05:10;98654.94;;;18.11;27.92
34081;BME280;20358;50.272;19.026;2023-06-04T13:08:21;98639.94;;;18.18;28.47
34081;BME280;20358;50.272;19.026;2023-06-04T13:11:30;98636.25;;;18.19;28.35
34081;BME280;20358;50.272;19.026;2023-06-04T13:14:38;98650.78;;;18.34;27.83
34081;BME280;20358;50.272;19.026;2023-06-04T13:17:45;98647.31;;;18.42;28.17
34081;BME280;20358;50.272;19.026;2023-06-04T13:20:53;98641.88;;;18.51;27.79
34081;BME280;20358;50.272;19.026;2023-06-04T13:24:06;98633.28;;;18.65;27.87
34081;BME280;20358;50.272;19.026;2023-06-04T13:27:15;98642.03;;;18.75;28.70
34081;BME280;20358;50.272;19.026;2023-06-04T13:30:22;98637.66;;;18.74;29.04
34081;BME280;20358;50.272;19.026;2023-06-04T13:33:30;98582.59;;;18.38;29.00
34081;BME280;20358;50.272;19.026;2023-06-04T13:36:38;98634.19;;;18.82;28.51
34081;BME280;20358;50.272;19.026;2023-06-04T13:39:51;98628.00;;;18.81;28.61
34081;BME280;20358;50.272;19.026;2023-06-04T13:42:58;98637.34;;;18.77;28.86
34081;BME280;20358;50.272;19.026;2023-06-04T13:46:05;98604.19;;;18.62;28.65
34081;BME280;20358;50.272;19.026;2023-06-04T13:49:14;98608.88;;;18.68;28.66
34081;BME280;20358;50.272;19.026;2023-06-04T13:52:23;98628.56;;;18.59;29.16
34081;BME280;20358;50.272;19.026;2023-06-04T13:55:40;98627.00;;;18.82;28.44
34081;BME280;20358;50.272;19.026;2023-06-04T13:58:49;98629.50;;;18.84;28.50
34081;BME280;20358;50.272;19.026;2023-06-04T14:01:56;98613.53;;;18.66;28.43
34081;BME280;20358;50.272;19.026;2023-06-04T14:05:05;98631.38;;;18.83;28.63
34081;BME280;20358;50.272;19.026;2023-06-04T14:08:15;98613.81;;;18.89;27.78
34081;BME280;20358;50.272;19.026;2023-06-04T14:11:25;98622.44;;;19.09;28.52
34081;BME280;20358;50.272;19.026;2023-06-04T14:14:34;98620.66;;;19.25;28.67
34081;BME280;20358;50.272;19.026;2023-06-04T14:17:43;98614.84;;;19.30;28.42
34081;BME280;20358;50.272;19.026;2023-06-04T14:20:53;98620.56;;;19.35;27.47
34081;BME280;20358;50.272;19.026;2023-06-04T14:24:01;98569.06;;;19.07;27.92
34081;BME280;20358;50.272;19.026;2023-06-04T14:27:14;98611.81;;;19.33;27.63
34081;BME280;20358;50.272;19.026;2023-06-04T14:30:23;98608.19;;;19.50;28.18
34081;BME280;20358;50.272;19.026;2023-06-04T14:33:30;98604.69;;;19.57;27.43
34081;BME280;20358;50.272;19.026;2023-06-04T14:36:40;98603.84;;;19.65;27.87
34081;BME280;20358;50.272;19.026;2023-06-04T14:39:47;98600.84;;;19.68;26.85
34081;BME280;20358;50.272;19.026;2023-06-04T14:42:59;98591.47;;;19.72;27.95
34081;BME280;20358;50.272;19.026;2023-06-04T14:46:06;98595.50;;;20.00;27.39
34081;BME280;20358;50.272;19.026;2023-06-04T14:49:14;98595.88;;;20.05;26.98
34081;BME280;20358;50.272;19.026;2023-06-04T14:52:30;98599.03;;;20.09;27.55
34081;BME280;20358;50.272;19.026;2023-06-04T14:55:38;98569.88;;;20.06;27.50
34081;BME280;20358;50.272;19.026;2023-06-04T14:59:02;98592.16;;;20.47;27.52
34081;BME280;20358;50.272;19.026;2023-06-04T15:02:17;98590.97;;;20.96;27.66
34081;BME280;20358;50.272;19.026;2023-06-04T15:05:26;98568.59;;;21.65;26.77
34081;BME280;20358;50.272;19.026;2023-06-04T15:08:37;98585.97;;;22.52;25.34
34081;BME280;20358;50.272;19.026;2023-06-04T15:11:45;98578.66;;;23.19;25.18
34081;BME280;20358;50.272;19.026;2023-06-04T15:14:56;98587.56;;;23.76;23.62
34081;BME280;20358;50.272;19.026;2023-06-04T15:18:05;98582.03;;;24.27;23.39
34081;BME280;20358;50.272;19.026;2023-06-04T15:21:15;98586.13;;;24.78;23.16
34081;BME280;20358;50.272;19.026;2023-06-04T15:24:22;98587.06;;;25.46;23.31
34081;BME280;20358;50.272;19.026;2023-06-04T15:27:33;98583.69;;;26.31;21.95
34081;BME280;20358;50.272;19.026;2023-06-04T15:30:47;98575.22;;;26.91;21.76
34081;BME280;20358;50.272;19.026;2023-06-04T15:33:55;98570.06;;;27.34;20.74
34081;BME280;20358;50.272;19.026;2023-06-04T15:37:02;98578.19;;;27.72;20.61
34081;BME280;20358;50.272;19.026;2023-06-04T15:40:12;98581.34;;;28.00;20.01
34081;BME280;20358;50.272;19.026;2023-06-04T15:43:21;98583.44;;;28.23;19.88
34081;BME280;20358;50.272;19.026;2023-06-04T15:46:32;98580.91;;;28.52;19.96
34081;BME280;20358;50.272;19.026;2023-06-04T15:49:43;98581.84;;;28.83;19.44
34081;BME280;20358;50.272;19.026;2023-06-04T15:52:53;98576.88;;;29.16;19.72
34081;BME280;20358;50.272;19.026;2023-06-04T15:56:01;98576.06;;;29.45;18.93
34081;BME280;20358;50.272;19.026;2023-06-04T15:59:10;98566.34;;;29.67;19.28
34081;BME280;20358;50.272;19.026;2023-06-04T16:02:22;98500.97;;;29.56;18.70
34081;BME280;20358;50.272;19.026;2023-06-04T16:05:32;98575.78;;;29.95;18.69
34081;BME280;20358;50.272;19.026;2023-06-04T16:08:39;98566.69;;;30.01;18.45
34081;BME280;20358;50.272;19.026;2023-06-04T16:11:54;98567.19;;;30.09;18.21
34081;BME280;20358;50.272;19.026;2023-06-04T16:15:01;98568.59;;;30.12;18.47
34081;BME280;20358;50.272;19.026;2023-06-04T16:18:12;98573.00;;;30.36;18.22
34081;BME280;20358;50.272;19.026;2023-06-04T16:21:22;98572.78;;;30.37;18.54
34081;BME280;20358;50.272;19.026;2023-06-04T16:24:34;98575.75;;;30.36;18.39
34081;BME280;20358;50.272;19.026;2023-06-04T16:27:41;98566.22;;;30.04;18.61
34081;BME280;20358;50.272;19.026;2023-06-04T16:30:49;98574.84;;;30.01;18.64
34081;BME280;20358;50.272;19.026;2023-06-04T16:33:58;98529.50;;;29.83;18.53
34081;BME280;20358;50.272;19.026;2023-06-04T16:37:06;98566.75;;;30.24;18.48